sensor_id;sensor_type;location;lat;lon;timestamp;P1;durP1;ratioP1;P2;durP2;ratioP2
13477;SDS011;12598;62.382;17.344;2023-03-29T00:00:33;1.75;;;0.40;;
13477;SDS011;12598;62.382;17.344;2023-03-29T00:01:36;0.40;;;0.30;;
13477;SDS011;12598;62.382;17.344;2023-03-29T00:02:42;0.93;;;0.60;;
13477;SDS011;12598;62.382;17.344;2023-03-29T00:03:49;0.63;;;0.60;;
13477;SDS011;12598;62.382;17.344;2023-03-29T00:04:52;1.23;;;0.68;;
13477;SDS011;12598;62.382;17.344;2023-03-29T00:05:58;0.52;;;0.40;;
13477;SDS011;12598;62.382;17.344;2023-03-29T00:07:03;0.88;;;0.52;;
13477;SDS011;12598;62.382;17.344;2023-03-29T00:08:07;0.63;;;0.40;;
13477;SDS011;12598;62.382;17.344;2023-03-29T00:09:09;1.20;;;0.50;;
13477;SDS011;12598;62.382;17.344;2023-03-29T00:10:11;0.85;;;0.30;;
13477;SDS011;12598;62.382;17.344;2023-03-29T00:11:13;1.42;;;0.60;;
13477;SDS011;12598;62.382;17.344;2023-03-29T00:12:15;0.45;;;0.45;;
13477;SDS011;12598;62.382;17.344;2023-03-29T00:13:17;1.25;;;0.40;;
13477;SDS011;12598;62.382;17.344;2023-03-29T00:14:19;2.30;;;0.50;;
13477;SDS011;12598;62.382;17.344;2023-03-29T00:15:21;0.82;;;0.35;;
13477;SDS011;12598;62.382;17.344;2023-03-29T00:16:23;1.40;;;0.68;;
13477;SDS011;12598;62.382;17.344;2023-03-29T00:17:25;1.48;;;0.50;;
13477;SDS011;12598;62.382;17.344;2023-03-29T00:18:27;1.27;;;0.35;;
13477;SDS011;12598;62.382;17.344;2023-03-29T00:19:29;0.82;;;0.40;;
13477;SDS011;12598;62.382;17.344;2023-03-29T00:20:36;0.88;;;0.60;;
13477;SDS011;12598;62.382;17.344;2023-03-29T00:21:38;1.05;;;0.40;;
13477;SDS011;12598;62.382;17.344;2023-03-29T00:22:40;0.77;;;0.45;;
13477;SDS011;12598;62.382;17.344;2023-03-29T00:23:47;0.98;;;0.60;;
13477;SDS011;12598;62.382;17.344;2023-03-29T00:24:51;1.73;;;0.50;;
13477;SDS011;12598;62.382;17.344;2023-03-29T00:25:54;1.67;;;0.57;;
13477;SDS011;12598;62.382;17.344;2023-03-29T00:26:57;1.73;;;0.60;;
13477;SDS011;12598;62.382;17.344;2023-03-29T00:27:59;2.42;;;0.65;;
13477;SDS011;12598;62.382;17.344;2023-03-29T00:29:00;1.20;;;0.60;;
13477;SDS011;12598;62.382;17.344;2023-03-29T00:30:03;0.50;;;0.45;;
13477;SDS011;12598;62.382;17.344;2023-03-29T00:31:12;0.85;;;0.50;;
13477;SDS011;12598;62.382;17.344;2023-03-29T00:32:15;1.00;;;0.73;;
13477;SDS011;12598;62.382;17.344;2023-03-29T00:33:17;1.00;;;0.50;;
13477;SDS011;12598;62.382;17.344;2023-03-29T00:34:21;0.60;;;0.50;;
13477;SDS011;12598;62.382;17.344;2023-03-29T00:35:24;1.20;;;0.60;;
13477;SDS011;12598;62.382;17.344;2023-03-29T00:36:26;0.77;;;0.50;;
13477;SDS011;12598;62.382;17.344;2023-03-29T00:37:28;0.90;;;0.47;;
13477;SDS011;12598;62.382;17.344;2023-03-29T00:38:33;1.45;;;0.60;;
13477;SDS011;12598;62.382;17.344;2023-03-29T00:39:35;0.90;;;0.60;;
13477;SDS011;12598;62.382;17.344;2023-03-29T00:40:44;2.85;;;0.70;;
13477;SDS011;12598;62.382;17.344;2023-03-29T00:41:47;0.73;;;0.60;;
13477;SDS011;12598;62.382;17.344;2023-03-29T00:42:50;1.10;;;0.60;;
13477;SDS011;12598;62.382;17.344;2023-03-29T00:43:59;0.98;;;0.50;;
13477;SDS011;12598;62.382;17.344;2023-03-29T00:46:11;1.08;;;0.60;;
13477;SDS011;12598;62.382;17.344;2023-03-29T00:47:14;0.95;;;0.65;;
13477;SDS011;12598;62.382;17.344;2023-03-29T00:48:21;3.80;;;0.73;;
13477;SDS011;12598;62.382;17.344;2023-03-29T00:49:27;1.25;;;0.50;;
13477;SDS011;12598;62.382;17.344;2023-03-29T00:50:46;1.98;;;0.80;;
13477;SDS011;12598;62.382;17.344;2023-03-29T00:51:52;2.05;;;0.60;;
13477;SDS011;12598;62.382;17.344;2023-03-29T00:52:58;0.82;;;0.50;;
13477;SDS011;12598;62.382;17.344;2023-03-29T00:54:22;0.70;;;0.50;;
13477;SDS011;12598;62.382;17.344;2023-03-29T00:55:26;1.48;;;0.60;;
13477;SDS011;12598;62.382;17.344;2023-03-29T00:56:36;0.60;;;0.40;;
13477;SDS011;12598;62.382;17.344;2023-03-29T00:57:41;0.88;;;0.40;;
13477;SDS011;12598;62.382;17.344;2023-03-29T00:58:48;0.35;;;0.30;;
13477;SDS011;12598;62.382;17.344;2023-03-29T00:59:55;2.15;;;0.57;;
13477;SDS011;12598;62.382;17.344;2023-03-29T01:01:00;0.90;;;0.40;;
13477;SDS011;12598;62.382;17.344;2023-03-29T01:02:09;1.02;;;0.40;;
13477;SDS011;12598;62.382;17.344;2023-03-29T01:03:12;1.63;;;0.50;;
13477;SDS011;12598;62.382;17.344;2023-03-29T01:05:44;0.95;;;0.40;;
13477;SDS011;12598;62.382;17.344;2023-03-29T01:07:52;1.00;;;0.47;;
13477;SDS011;12598;62.382;17.344;2023-03-29T01:08:28;0.63;;;0.40;;
13477;SDS011;12598;62.382;17.344;2023-03-29T01:09:43;0.75;;;0.22;;
13477;SDS011;12598;62.382;17.344;2023-03-29T01:11:09;4.03;;;0.50;;
13477;SDS011;12598;62.382;17.344;2023-03-29T01:12:25;1.05;;;0.40;;
13477;SDS011;12598;62.382;17.344;2023-03-29T01:15:12;0.52;;;0.38;;
13477;SDS011;12598;62.382;17.344;2023-03-29T01:16:18;0.65;;;0.30;;
13477;SDS011;12598;62.382;17.344;2023-03-29T01:17:22;0.82;;;0.50;;
13477;SDS011;12598;62.382;17.344;2023-03-29T01:18:26;0.82;;;0.40;;
13477;SDS011;12598;62.382;17.344;2023-03-29T01:19:29;1.02;;;0.40;;
13477;SDS011;12598;62.382;17.344;2023-03-29T01:24:54;2.28;;;0.70;;
13477;SDS011;12598;62.382;17.344;2023-03-29T01:28:59;1.30;;;0.47;;
13477;SDS011;12598;62.382;17.344;2023-03-29T01:30:28;0.60;;;0.50;;
13477;SDS011;12598;62.382;17.344;2023-03-29T01:31:41;0.60;;;0.45;;
13477;SDS011;12598;62.382;17.344;2023-03-29T01:32:49;1.23;;;0.70;;
13477;SDS011;12598;62.382;17.344;2023-03-29T01:34:07;0.82;;;0.50;;
13477;SDS011;12598;62.382;17.344;2023-03-29T01:35:34;1.10;;;0.57;;
13477;SDS011;12598;62.382;17.344;2023-03-29T01:36:48;0.40;;;0.30;;
13477;SDS011;12598;62.382;17.344;2023-03-29T01:38:15;0.77;;;0.30;;
13477;SDS011;12598;62.382;17.344;2023-03-29T01:39:23;1.73;;;0.47;;
13477;SDS011;12598;62.382;17.344;2023-03-29T01:40:25;0.80;;;0.60;;
13477;SDS011;12598;62.382;17.344;2023-03-29T01:41:39;0.80;;;0.47;;
13477;SDS011;12598;62.382;17.344;2023-03-29T01:42:57;0.65;;;0.40;;
13477;SDS011;12598;62.382;17.344;2023-03-29T01:44:36;0.60;;;0.38;;
13477;SDS011;12598;62.382;17.344;2023-03-29T01:45:46;0.47;;;0.35;;
13477;SDS011;12598;62.382;17.344;2023-03-29T01:46:58;0.40;;;0.30;;
13477;SDS011;12598;62.382;17.344;2023-03-29T01:48:32;1.05;;;0.40;;
13477;SDS011;12598;62.382;17.344;2023-03-29T01:51:22;1.40;;;0.50;;
13477;SDS011;12598;62.382;17.344;2023-03-29T01:52:38;1.63;;;0.60;;
13477;SDS011;12598;62.382;17.344;2023-03-29T01:54:02;1.10;;;0.50;;
13477;SDS011;12598;62.382;17.344;2023-03-29T01:55:12;0.32;;;0.32;;
13477;SDS011;12598;62.382;17.344;2023-03-29T01:56:20;1.30;;;0.40;;
13477;SDS011;12598;62.382;17.344;2023-03-29T01:57:25;1.27;;;0.50;;
13477;SDS011;12598;62.382;17.344;2023-03-29T01:58:29;0.75;;;0.40;;
13477;SDS011;12598;62.382;17.344;2023-03-29T01:59:34;0.75;;;0.40;;
13477;SDS011;12598;62.382;17.344;2023-03-29T02:00:41;1.02;;;0.30;;
13477;SDS011;12598;62.382;17.344;2023-03-29T02:01:46;0.65;;;0.30;;
13477;SDS011;12598;62.382;17.344;2023-03-29T02:02:53;1.02;;;0.57;;
13477;SDS011;12598;62.382;17.344;2023-03-29T02:04:01;0.38;;;0.30;;
13477;SDS011;12598;62.382;17.344;2023-03-29T02:05:07;0.60;;;0.40;;
13477;SDS011;12598;62.382;17.344;2023-03-29T02:06:11;0.88;;;0.32;;
13477;SDS011;12598;62.382;17.344;2023-03-29T02:07:16;0.38;;;0.30;;
13477;SDS011;12598;62.382;17.344;2023-03-29T02:08:22;0.45;;;0.30;;
13477;SDS011;12598;62.382;17.344;2023-03-29T02:09:26;1.08;;;0.30;;
13477;SDS011;12598;62.382;17.344;2023-03-29T02:10:30;0.30;;;0.30;;
13477;SDS011;12598;62.382;17.344;2023-03-29T02:11:34;0.40;;;0.40;;
13477;SDS011;12598;62.382;17.344;2023-03-29T02:12:36;0.50;;;0.40;;
13477;SDS011;12598;62.382;17.344;2023-03-29T02:13:39;0.90;;;0.40;;
13477;SDS011;12598;62.382;17.344;2023-03-29T02:14:41;0.50;;;0.40;;
13477;SDS011;12598;62.382;17.344;2023-03-29T02:15:46;1.23;;;0.45;;
13477;SDS011;12598;62.382;17.344;2023-03-29T02:16:48;0.80;;;0.40;;
13477;SDS011;12598;62.382;17.344;2023-03-29T02:17:50;1.02;;;0.50;;
13477;SDS011;12598;62.382;17.344;2023-03-29T02:18:53;0.98;;;0.35;;
13477;SDS011;12598;62.382;17.344;2023-03-29T02:20:01;0.68;;;0.40;;
13477;SDS011;12598;62.382;17.344;2023-03-29T02:21:18;0.60;;;0.40;;
13477;SDS011;12598;62.382;17.344;2023-03-29T02:22:33;0.40;;;0.40;;
13477;SDS011;12598;62.382;17.344;2023-03-29T02:23:41;0.40;;;0.32;;
13477;SDS011;12598;62.382;17.344;2023-03-29T02:24:47;0.32;;;0.32;;
13477;SDS011;12598;62.382;17.344;2023-03-29T02:25:54;1.25;;;0.40;;
13477;SDS011;12598;62.382;17.344;2023-03-29T02:26:59;0.52;;;0.40;;
13477;SDS011;12598;62.382;17.344;2023-03-29T02:28:02;0.80;;;0.57;;
13477;SDS011;12598;62.382;17.344;2023-03-29T02:29:05;0.82;;;0.30;;
13477;SDS011;12598;62.382;17.344;2023-03-29T02:30:07;0.43;;;0.30;;
13477;SDS011;12598;62.382;17.344;2023-03-29T02:34:01;0.35;;;0.30;;
13477;SDS011;12598;62.382;17.344;2023-03-29T02:35:12;0.30;;;0.30;;
13477;SDS011;12598;62.382;17.344;2023-03-29T02:36:37;0.65;;;0.30;;
13477;SDS011;12598;62.382;17.344;2023-03-29T02:37:41;1.42;;;0.50;;
13477;SDS011;12598;62.382;17.344;2023-03-29T02:38:46;1.15;;;0.40;;
13477;SDS011;12598;62.382;17.344;2023-03-29T02:39:48;0.90;;;0.40;;
13477;SDS011;12598;62.382;17.344;2023-03-29T02:40:53;2.28;;;0.43;;
13477;SDS011;12598;62.382;17.344;2023-03-29T02:41:56;1.08;;;0.32;;
13477;SDS011;12598;62.382;17.344;2023-03-29T02:42:59;2.55;;;0.52;;
13477;SDS011;12598;62.382;17.344;2023-03-29T02:44:04;0.50;;;0.50;;
13477;SDS011;12598;62.382;17.344;2023-03-29T02:45:12;0.40;;;0.20;;
13477;SDS011;12598;62.382;17.344;2023-03-29T02:46:17;1.27;;;0.60;;
13477;SDS011;12598;62.382;17.344;2023-03-29T02:47:41;1.23;;;0.38;;
13477;SDS011;12598;62.382;17.344;2023-03-29T02:48:47;0.70;;;0.20;;
13477;SDS011;12598;62.382;17.344;2023-03-29T02:49:52;1.02;;;0.43;;
13477;SDS011;12598;62.382;17.344;2023-03-29T02:50:55;0.70;;;0.40;;
13477;SDS011;12598;62.382;17.344;2023-03-29T02:52:05;2.05;;;0.40;;
13477;SDS011;12598;62.382;17.344;2023-03-29T02:53:16;2.33;;;0.50;;
13477;SDS011;12598;62.382;17.344;2023-03-29T02:54:25;0.85;;;0.40;;
13477;SDS011;12598;62.382;17.344;2023-03-29T02:55:30;0.88;;;0.50;;
13477;SDS011;12598;62.382;17.344;2023-03-29T02:56:41;2.85;;;0.63;;
13477;SDS011;12598;62.382;17.344;2023-03-29T02:57:45;1.67;;;0.35;;
13477;SDS011;12598;62.382;17.344;2023-03-29T02:58:47;1.33;;;0.80;;
13477;SDS011;12598;62.382;17.344;2023-03-29T02:59:49;2.50;;;0.80;;
13477;SDS011;12598;62.382;17.344;2023-03-29T03:00:51;0.88;;;0.60;;
13477;SDS011;12598;62.382;17.344;2023-03-29T03:01:53;1.73;;;0.60;;
13477;SDS011;12598;62.382;17.344;2023-03-29T03:02:57;2.58;;;0.70;;
13477;SDS011;12598;62.382;17.344;2023-03-29T03:04:02;2.80;;;0.73;;
13477;SDS011;12598;62.382;17.344;2023-03-29T03:05:04;2.75;;;0.55;;
13477;SDS011;12598;62.382;17.344;2023-03-29T03:06:06;5.05;;;0.43;;
13477;SDS011;12598;62.382;17.344;2023-03-29T03:07:08;1.30;;;0.40;;
13477;SDS011;12598;62.382;17.344;2023-03-29T03:08:11;1.13;;;0.68;;
13477;SDS011;12598;62.382;17.344;2023-03-29T03:09:13;1.42;;;0.50;;
13477;SDS011;12598;62.382;17.344;2023-03-29T03:10:17;3.88;;;0.70;;
13477;SDS011;12598;62.382;17.344;2023-03-29T03:11:19;1.05;;;0.40;;
13477;SDS011;12598;62.382;17.344;2023-03-29T03:12:23;2.45;;;0.50;;
13477;SDS011;12598;62.382;17.344;2023-03-29T03:13:24;1.42;;;0.40;;
13477;SDS011;12598;62.382;17.344;2023-03-29T03:14:26;3.03;;;0.45;;
13477;SDS011;12598;62.382;17.344;2023-03-29T03:15:31;2.75;;;0.70;;
13477;SDS011;12598;62.382;17.344;2023-03-29T03:16:36;2.72;;;0.65;;
13477;SDS011;12598;62.382;17.344;2023-03-29T03:17:38;1.35;;;0.52;;
13477;SDS011;12598;62.382;17.344;2023-03-29T03:18:41;1.23;;;0.52;;
13477;SDS011;12598;62.382;17.344;2023-03-29T03:19:43;1.15;;;0.52;;
13477;SDS011;12598;62.382;17.344;2023-03-29T03:20:54;5.28;;;0.80;;
13477;SDS011;12598;62.382;17.344;2023-03-29T03:22:02;3.17;;;0.50;;
13477;SDS011;12598;62.382;17.344;2023-03-29T03:23:06;3.67;;;0.57;;
13477;SDS011;12598;62.382;17.344;2023-03-29T03:24:10;4.88;;;0.90;;
13477;SDS011;12598;62.382;17.344;2023-03-29T03:25:15;3.72;;;0.95;;
13477;SDS011;12598;62.382;17.344;2023-03-29T03:26:20;1.60;;;0.50;;
13477;SDS011;12598;62.382;17.344;2023-03-29T03:27:25;3.42;;;0.60;;
13477;SDS011;12598;62.382;17.344;2023-03-29T03:28:27;1.38;;;0.60;;
13477;SDS011;12598;62.382;17.344;2023-03-29T03:29:29;1.75;;;0.60;;
13477;SDS011;12598;62.382;17.344;2023-03-29T03:30:56;1.67;;;0.98;;
13477;SDS011;12598;62.382;17.344;2023-03-29T03:32:22;2.35;;;0.50;;
13477;SDS011;12598;62.382;17.344;2023-03-29T03:33:53;1.80;;;0.52;;
13477;SDS011;12598;62.382;17.344;2023-03-29T03:35:30;1.40;;;0.60;;
13477;SDS011;12598;62.382;17.344;2023-03-29T03:36:33;3.42;;;0.80;;
13477;SDS011;12598;62.382;17.344;2023-03-29T03:37:36;2.95;;;0.50;;
13477;SDS011;12598;62.382;17.344;2023-03-29T03:38:41;1.33;;;0.60;;
13477;SDS011;12598;62.382;17.344;2023-03-29T03:39:45;2.40;;;0.65;;
13477;SDS011;12598;62.382;17.344;2023-03-29T03:40:54;2.28;;;0.70;;
13477;SDS011;12598;62.382;17.344;2023-03-29T03:41:57;2.95;;;0.55;;
13477;SDS011;12598;62.382;17.344;2023-03-29T03:43:00;3.17;;;0.70;;
13477;SDS011;12598;62.382;17.344;2023-03-29T03:44:02;2.58;;;0.55;;
13477;SDS011;12598;62.382;17.344;2023-03-29T03:45:05;0.60;;;0.40;;
13477;SDS011;12598;62.382;17.344;2023-03-29T03:46:24;2.42;;;0.75;;
13477;SDS011;12598;62.382;17.344;2023-03-29T03:47:29;3.03;;;0.70;;
13477;SDS011;12598;62.382;17.344;2023-03-29T03:48:44;0.93;;;0.43;;
13477;SDS011;12598;62.382;17.344;2023-03-29T03:49:55;2.13;;;0.90;;
13477;SDS011;12598;62.382;17.344;2023-03-29T03:50:58;2.22;;;0.50;;
13477;SDS011;12598;62.382;17.344;2023-03-29T03:52:06;1.65;;;0.68;;
13477;SDS011;12598;62.382;17.344;2023-03-29T03:53:09;2.05;;;0.63;;
13477;SDS011;12598;62.382;17.344;2023-03-29T03:54:37;2.15;;;0.50;;
13477;SDS011;12598;62.382;17.344;2023-03-29T03:56:02;1.15;;;0.50;;
13477;SDS011;12598;62.382;17.344;2023-03-29T03:57:18;2.42;;;0.60;;
13477;SDS011;12598;62.382;17.344;2023-03-29T03:58:24;3.95;;;0.63;;
13477;SDS011;12598;62.382;17.344;2023-03-29T03:59:27;0.90;;;0.40;;
13477;SDS011;12598;62.382;17.344;2023-03-29T04:00:34;4.93;;;0.70;;
13477;SDS011;12598;62.382;17.344;2023-03-29T04:01:54;2.15;;;0.57;;
13477;SDS011;12598;62.382;17.344;2023-03-29T04:02:57;3.13;;;0.70;;
13477;SDS011;12598;62.382;17.344;2023-03-29T04:04:00;4.38;;;0.80;;
13477;SDS011;12598;62.382;17.344;2023-03-29T04:05:03;2.42;;;0.73;;
13477;SDS011;12598;62.382;17.344;2023-03-29T04:06:09;1.48;;;0.65;;
13477;SDS011;12598;62.382;17.344;2023-03-29T04:07:31;4.38;;;0.65;;
13477;SDS011;12598;62.382;17.344;2023-03-29T04:08:54;6.47;;;0.95;;
13477;SDS011;12598;62.382;17.344;2023-03-29T04:10:22;4.50;;;0.88;;
13477;SDS011;12598;62.382;17.344;2023-03-29T04:11:45;6.25;;;0.80;;
13477;SDS011;12598;62.382;17.344;2023-03-29T04:12:47;5.28;;;0.52;;
13477;SDS011;12598;62.382;17.344;2023-03-29T04:13:49;3.65;;;0.73;;
13477;SDS011;12598;62.382;17.344;2023-03-29T04:15:08;4.15;;;0.80;;
13477;SDS011;12598;62.382;17.344;2023-03-29T04:16:14;1.55;;;0.65;;
13477;SDS011;12598;62.382;17.344;2023-03-29T04:17:16;1.85;;;0.70;;
13477;SDS011;12598;62.382;17.344;2023-03-29T04:18:44;3.13;;;0.80;;
13477;SDS011;12598;62.382;17.344;2023-03-29T04:19:46;3.58;;;0.90;;
13477;SDS011;12598;62.382;17.344;2023-03-29T04:20:48;4.28;;;0.70;;
13477;SDS011;12598;62.382;17.344;2023-03-29T04:21:53;6.30;;;1.00;;
13477;SDS011;12598;62.382;17.344;2023-03-29T04:22:55;4.82;;;0.73;;
13477;SDS011;12598;62.382;17.344;2023-03-29T04:23:57;3.58;;;0.70;;
13477;SDS011;12598;62.382;17.344;2023-03-29T04:24:59;4.25;;;0.63;;
13477;SDS011;12598;62.382;17.344;2023-03-29T04:26:27;2.97;;;0.77;;
13477;SDS011;12598;62.382;17.344;2023-03-29T04:27:35;3.45;;;0.80;;
13477;SDS011;12598;62.382;17.344;2023-03-29T04:28:44;5.30;;;1.25;;
13477;SDS011;12598;62.382;17.344;2023-03-29T04:29:51;6.82;;;1.10;;
13477;SDS011;12598;62.382;17.344;2023-03-29T04:31:01;8.43;;;1.13;;
13477;SDS011;12598;62.382;17.344;2023-03-29T04:32:18;3.88;;;0.93;;
13477;SDS011;12598;62.382;17.344;2023-03-29T04:33:29;3.22;;;0.63;;
13477;SDS011;12598;62.382;17.344;2023-03-29T04:34:34;3.28;;;1.02;;
13477;SDS011;12598;62.382;17.344;2023-03-29T04:35:38;3.22;;;0.80;;
13477;SDS011;12598;62.382;17.344;2023-03-29T04:36:44;3.03;;;0.60;;
13477;SDS011;12598;62.382;17.344;2023-03-29T04:37:52;5.15;;;1.05;;
13477;SDS011;12598;62.382;17.344;2023-03-29T04:38:56;1.85;;;0.90;;
13477;SDS011;12598;62.382;17.344;2023-03-29T04:40:02;3.80;;;0.60;;
13477;SDS011;12598;62.382;17.344;2023-03-29T04:41:18;2.45;;;0.60;;
13477;SDS011;12598;62.382;17.344;2023-03-29T04:42:48;2.28;;;0.43;;
13477;SDS011;12598;62.382;17.344;2023-03-29T04:43:53;2.05;;;0.60;;
13477;SDS011;12598;62.382;17.344;2023-03-29T04:44:58;2.83;;;0.80;;
13477;SDS011;12598;62.382;17.344;2023-03-29T04:46:19;4.68;;;0.63;;
13477;SDS011;12598;62.382;17.344;2023-03-29T04:47:42;3.80;;;1.38;;
13477;SDS011;12598;62.382;17.344;2023-03-29T04:48:50;2.55;;;0.88;;
13477;SDS011;12598;62.382;17.344;2023-03-29T04:50:01;2.90;;;0.77;;
13477;SDS011;12598;62.382;17.344;2023-03-29T04:51:11;4.85;;;0.93;;
13477;SDS011;12598;62.382;17.344;2023-03-29T04:52:13;5.25;;;0.90;;
13477;SDS011;12598;62.382;17.344;2023-03-29T04:53:16;3.38;;;1.05;;
13477;SDS011;12598;62.382;17.344;2023-03-29T04:54:19;8.30;;;1.00;;
13477;SDS011;12598;62.382;17.344;2023-03-29T04:55:49;5.32;;;0.90;;
13477;SDS011;12598;62.382;17.344;2023-03-29T04:57:00;6.65;;;1.17;;
13477;SDS011;12598;62.382;17.344;2023-03-29T04:58:37;5.82;;;1.10;;
13477;SDS011;12598;62.382;17.344;2023-03-29T04:59:39;4.93;;;0.90;;
13477;SDS011;12598;62.382;17.344;2023-03-29T05:01:04;7.85;;;0.70;;
13477;SDS011;12598;62.382;17.344;2023-03-29T05:02:14;5.07;;;1.52;;
13477;SDS011;12598;62.382;17.344;2023-03-29T05:03:20;4.00;;;1.02;;
13477;SDS011;12598;62.382;17.344;2023-03-29T05:04:31;6.20;;;0.90;;
13477;SDS011;12598;62.382;17.344;2023-03-29T05:05:42;3.08;;;0.80;;
13477;SDS011;12598;62.382;17.344;2023-03-29T05:06:44;4.95;;;0.82;;
13477;SDS011;12598;62.382;17.344;2023-03-29T05:07:47;4.85;;;0.85;;
13477;SDS011;12598;62.382;17.344;2023-03-29T05:08:52;3.88;;;0.80;;
13477;SDS011;12598;62.382;17.344;2023-03-29T05:10:13;4.38;;;0.90;;
13477;SDS011;12598;62.382;17.344;2023-03-29T05:11:16;4.22;;;0.98;;
13477;SDS011;12598;62.382;17.344;2023-03-29T05:12:18;4.32;;;0.93;;
13477;SDS011;12598;62.382;17.344;2023-03-29T05:13:25;4.85;;;0.88;;
13477;SDS011;12598;62.382;17.344;2023-03-29T05:14:27;4.82;;;1.20;;
13477;SDS011;12598;62.382;17.344;2023-03-29T05:15:29;5.00;;;0.80;;
13477;SDS011;12598;62.382;17.344;2023-03-29T05:16:31;5.22;;;1.05;;
13477;SDS011;12598;62.382;17.344;2023-03-29T05:17:35;5.03;;;1.13;;
13477;SDS011;12598;62.382;17.344;2023-03-29T05:18:42;5.80;;;1.33;;
13477;SDS011;12598;62.382;17.344;2023-03-29T05:19:44;5.50;;;1.35;;
13477;SDS011;12598;62.382;17.344;2023-03-29T05:20:49;5.20;;;1.05;;
13477;SDS011;12598;62.382;17.344;2023-03-29T05:21:54;6.63;;;1.10;;
13477;SDS011;12598;62.382;17.344;2023-03-29T05:22:57;2.92;;;1.10;;
13477;SDS011;12598;62.382;17.344;2023-03-29T05:24:23;5.35;;;1.40;;
13477;SDS011;12598;62.382;17.344;2023-03-29T05:25:31;6.53;;;1.27;;
13477;SDS011;12598;62.382;17.344;2023-03-29T05:26:34;5.95;;;0.95;;
13477;SDS011;12598;62.382;17.344;2023-03-29T05:27:37;5.50;;;1.15;;
13477;SDS011;12598;62.382;17.344;2023-03-29T05:28:42;2.70;;;0.93;;
13477;SDS011;12598;62.382;17.344;2023-03-29T05:29:45;7.38;;;1.45;;
13477;SDS011;12598;62.382;17.344;2023-03-29T05:31:05;5.95;;;1.02;;
13477;SDS011;12598;62.382;17.344;2023-03-29T05:32:09;6.05;;;1.38;;
13477;SDS011;12598;62.382;17.344;2023-03-29T05:33:12;5.13;;;1.15;;
13477;SDS011;12598;62.382;17.344;2023-03-29T05:34:14;6.32;;;1.23;;
13477;SDS011;12598;62.382;17.344;2023-03-29T05:35:20;2.10;;;0.95;;
13477;SDS011;12598;62.382;17.344;2023-03-29T05:36:24;2.45;;;1.00;;
13477;SDS011;12598;62.382;17.344;2023-03-29T05:37:26;5.60;;;1.73;;
13477;SDS011;12598;62.382;17.344;2023-03-29T05:38:33;5.65;;;1.17;;
13477;SDS011;12598;62.382;17.344;2023-03-29T05:39:36;6.80;;;1.45;;
13477;SDS011;12598;62.382;17.344;2023-03-29T05:40:39;7.40;;;1.48;;
13477;SDS011;12598;62.382;17.344;2023-03-29T05:42:04;14.23;;;2.38;;
13477;SDS011;12598;62.382;17.344;2023-03-29T05:43:18;11.93;;;1.88;;
13477;SDS011;12598;62.382;17.344;2023-03-29T05:44:20;10.48;;;1.85;;
13477;SDS011;12598;62.382;17.344;2023-03-29T05:45:28;13.38;;;1.73;;
13477;SDS011;12598;62.382;17.344;2023-03-29T05:46:30;9.60;;;1.60;;
13477;SDS011;12598;62.382;17.344;2023-03-29T05:47:35;12.73;;;2.33;;
13477;SDS011;12598;62.382;17.344;2023-03-29T05:48:38;8.45;;;1.75;;
13477;SDS011;12598;62.382;17.344;2023-03-29T05:49:41;13.25;;;1.60;;
13477;SDS011;12598;62.382;17.344;2023-03-29T05:50:47;6.32;;;2.17;;
13477;SDS011;12598;62.382;17.344;2023-03-29T05:51:54;8.05;;;1.98;;
13477;SDS011;12598;62.382;17.344;2023-03-29T05:53:00;7.43;;;1.45;;
13477;SDS011;12598;62.382;17.344;2023-03-29T05:54:02;10.25;;;1.73;;
13477;SDS011;12598;62.382;17.344;2023-03-29T05:55:04;9.07;;;1.73;;
13477;SDS011;12598;62.382;17.344;2023-03-29T05:56:06;10.80;;;2.05;;
13477;SDS011;12598;62.382;17.344;2023-03-29T05:57:11;15.05;;;2.15;;
13477;SDS011;12598;62.382;17.344;2023-03-29T05:58:14;8.35;;;1.70;;
13477;SDS011;12598;62.382;17.344;2023-03-29T05:59:19;12.93;;;1.58;;
13477;SDS011;12598;62.382;17.344;2023-03-29T06:00:21;10.80;;;1.73;;
13477;SDS011;12598;62.382;17.344;2023-03-29T06:01:39;6.03;;;1.40;;
13477;SDS011;12598;62.382;17.344;2023-03-29T06:02:44;11.75;;;1.98;;
13477;SDS011;12598;62.382;17.344;2023-03-29T06:03:46;6.70;;;1.80;;
13477;SDS011;12598;62.382;17.344;2023-03-29T06:04:50;12.55;;;1.90;;
13477;SDS011;12598;62.382;17.344;2023-03-29T06:06:12;14.00;;;2.03;;
13477;SDS011;12598;62.382;17.344;2023-03-29T06:07:17;8.38;;;2.10;;
13477;SDS011;12598;62.382;17.344;2023-03-29T06:08:34;9.07;;;1.75;;
13477;SDS011;12598;62.382;17.344;2023-03-29T06:09:47;9.35;;;1.67;;
13477;SDS011;12598;62.382;17.344;2023-03-29T06:10:55;9.80;;;1.80;;
13477;SDS011;12598;62.382;17.344;2023-03-29T06:12:24;7.82;;;1.73;;
13477;SDS011;12598;62.382;17.344;2023-03-29T06:13:31;7.55;;;1.80;;
13477;SDS011;12598;62.382;17.344;2023-03-29T06:14:37;9.00;;;1.70;;
13477;SDS011;12598;62.382;17.344;2023-03-29T06:15:52;7.10;;;1.40;;
13477;SDS011;12598;62.382;17.344;2023-03-29T06:16:54;6.35;;;1.73;;
13477;SDS011;12598;62.382;17.344;2023-03-29T06:17:57;8.80;;;1.60;;
13477;SDS011;12598;62.382;17.344;2023-03-29T06:18:59;5.82;;;1.33;;
13477;SDS011;12598;62.382;17.344;2023-03-29T06:20:03;6.05;;;1.52;;
13477;SDS011;12598;62.382;17.344;2023-03-29T06:21:12;10.65;;;1.88;;
13477;SDS011;12598;62.382;17.344;2023-03-29T06:22:14;7.45;;;1.48;;
13477;SDS011;12598;62.382;17.344;2023-03-29T06:23:17;8.50;;;1.38;;
13477;SDS011;12598;62.382;17.344;2023-03-29T06:24:20;16.52;;;2.20;;
13477;SDS011;12598;62.382;17.344;2023-03-29T06:25:28;11.95;;;1.60;;
13477;SDS011;12598;62.382;17.344;2023-03-29T06:26:31;15.32;;;2.00;;
13477;SDS011;12598;62.382;17.344;2023-03-29T06:27:33;11.15;;;1.95;;
13477;SDS011;12598;62.382;17.344;2023-03-29T06:28:35;6.45;;;1.65;;
13477;SDS011;12598;62.382;17.344;2023-03-29T06:29:37;13.25;;;1.95;;
13477;SDS011;12598;62.382;17.344;2023-03-29T06:30:40;11.25;;;2.20;;
13477;SDS011;12598;62.382;17.344;2023-03-29T06:31:44;11.15;;;2.35;;
13477;SDS011;12598;62.382;17.344;2023-03-29T06:33:04;11.80;;;2.08;;
13477;SDS011;12598;62.382;17.344;2023-03-29T06:34:24;11.77;;;2.55;;
13477;SDS011;12598;62.382;17.344;2023-03-29T06:35:45;10.73;;;2.25;;
13477;SDS011;12598;62.382;17.344;2023-03-29T06:36:52;11.13;;;1.45;;
13477;SDS011;12598;62.382;17.344;2023-03-29T06:37:55;16.05;;;2.28;;
13477;SDS011;12598;62.382;17.344;2023-03-29T06:39:22;12.02;;;1.60;;
13477;SDS011;12598;62.382;17.344;2023-03-29T06:40:43;12.40;;;1.80;;
13477;SDS011;12598;62.382;17.344;2023-03-29T06:41:46;6.35;;;1.58;;
13477;SDS011;12598;62.382;17.344;2023-03-29T06:43:11;9.68;;;1.80;;
13477;SDS011;12598;62.382;17.344;2023-03-29T06:44:40;10.18;;;1.50;;
13477;SDS011;12598;62.382;17.344;2023-03-29T06:45:51;7.93;;;1.73;;
13477;SDS011;12598;62.382;17.344;2023-03-29T06:47:04;12.10;;;2.05;;
13477;SDS011;12598;62.382;17.344;2023-03-29T06:48:06;11.05;;;2.22;;
13477;SDS011;12598;62.382;17.344;2023-03-29T06:49:09;14.35;;;1.98;;
13477;SDS011;12598;62.382;17.344;2023-03-29T06:50:22;13.68;;;2.08;;
13477;SDS011;12598;62.382;17.344;2023-03-29T06:51:44;10.32;;;1.52;;
13477;SDS011;12598;62.382;17.344;2023-03-29T06:52:47;10.02;;;1.85;;
13477;SDS011;12598;62.382;17.344;2023-03-29T06:53:50;12.80;;;1.85;;
13477;SDS011;12598;62.382;17.344;2023-03-29T06:54:52;6.97;;;1.75;;
13477;SDS011;12598;62.382;17.344;2023-03-29T06:55:58;7.50;;;1.65;;
13477;SDS011;12598;62.382;17.344;2023-03-29T06:57:14;10.95;;;1.83;;
13477;SDS011;12598;62.382;17.344;2023-03-29T06:58:16;4.90;;;1.15;;
13477;SDS011;12598;62.382;17.344;2023-03-29T06:59:18;6.80;;;1.25;;